createdAt,value
2023-10-12T00:01:27.296Z,98844.83
2023-10-12T00:06:31.688Z,98831.79
2023-10-12T00:11:47.177Z,98816.52
2023-10-12T00:16:49.979Z,98818.98
2023-10-12T00:22:01.516Z,98816.08
2023-10-12T00:27:04.862Z,98810.48
2023-10-12T00:32:14.433Z,98800.10
2023-10-12T00:37:16.394Z,98790.75
2023-10-12T00:42:19.541Z,98785.15
2023-10-12T00:47:45.018Z,98783.81
2023-10-12T00:52:55.078Z,98781.05
2023-10-12T00:57:56.883Z,98783.28
2023-10-12T01:03:08.698Z,98777.41
2023-10-12T01:08:20.123Z,98776.52
2023-10-12T01:13:22.026Z,98767.72
2023-10-12T01:18:29.656Z,98768.16
2023-10-12T01:23:33.594Z,98766.61
2023-10-12T01:28:36.081Z,98758.35
2023-10-12T01:33:42.747Z,98744.34
2023-10-12T01:38:48.355Z,98739.02
2023-10-12T01:43:50.769Z,98741.95
2023-10-12T01:48:53.521Z,98732.97
2023-10-12T01:53:56.622Z,98727.33
2023-10-12T01:58:58.386Z,98729.22
2023-10-12T02:04:03.537Z,98728.98
2023-10-12T02:09:10.010Z,98730.88
2023-10-12T02:14:13.733Z,98726.08
2023-10-12T02:19:26.428Z,98726.27
2023-10-12T02:24:28.557Z,98725.92
2023-10-12T02:29:36.891Z,98724.69
2023-10-12T02:34:42.591Z,98727.80
2023-10-12T02:39:44.937Z,98733.64
2023-10-12T02:44:49.771Z,98729.79
2023-10-12T02:50:08.980Z,98723.33
2023-10-12T02:55:24.111Z,98715.79
2023-10-12T03:00:45.110Z,98710.13
2023-10-12T03:05:50.087Z,98717.27
2023-10-12T03:11:01.652Z,98716.70
2023-10-12T03:16:21.303Z,98707.89
2023-10-12T03:21:24.519Z,98696.50
2023-10-12T03:26:26.735Z,98687.77
2023-10-12T03:31:46.052Z,98688.65
2023-10-12T03:36:50.973Z,98681.49
2023-10-12T03:41:53.077Z,98679.77
2023-10-12T03:46:59.253Z,98669.52
2023-10-12T03:52:03.688Z,98664.46
2023-10-12T03:57:20.731Z,98658.27
2023-10-12T04:02:22.724Z,98666.55
2023-10-12T04:07:39.089Z,98676.50
2023-10-12T04:12:55.556Z,98677.40
2023-10-12T04:18:01.090Z,98672.48
2023-10-12T04:23:26.281Z,98667.55
2023-10-12T04:28:33.955Z,98665.33
2023-10-12T04:33:45.687Z,98664.94
2023-10-12T04:38:57.702Z,98662.55
2023-10-12T04:44:18.871Z,98670.44
2023-10-12T04:49:20.976Z,98661.02
2023-10-12T04:54:25.831Z,98654.33
2023-10-12T04:59:31.935Z,98650.95
2023-10-12T05:04:42.999Z,98650.39
2023-10-12T05:09:50.841Z,98639.02
2023-10-12T05:15:02.529Z,98635.52
2023-10-12T05:20:05.063Z,98631.34
2023-10-12T05:25:07.869Z,98636.52
2023-10-12T05:30:20.285Z,98633.27
2023-10-12T05:35:42.295Z,98633.33
2023-10-12T05:40:54.090Z,98638.80
2023-10-12T05:45:56.157Z,98651.20
2023-10-12T05:50:57.821Z,98654.20
2023-10-12T05:56:00.571Z,98662.24
2023-10-12T06:01:09.984Z,98666.67
2023-10-12T06:06:16.372Z,98670.34
2023-10-12T06:11:19.389Z,98668.48
2023-10-12T06:16:22.722Z,98669.23
2023-10-12T06:21:25.331Z,98675.81
2023-10-12T06:26:30.153Z,98683.38
2023-10-12T06:31:32.362Z,98686.34
2023-10-12T06:36:40.095Z,98687.52
2023-10-12T06:41:45.331Z,98693.31
2023-10-12T06:46:50.366Z,98686.72
2023-10-12T06:51:56.307Z,98688.75
2023-10-12T06:57:18.905Z,98685.67
2023-10-12T07:02:25.575Z,98693.70
2023-10-12T07:07:38.119Z,98692.73
2023-10-12T07:12:49.397Z,98690.14
2023-10-12T07:17:52.239Z,98686.11
2023-10-12T07:22:57.161Z,98687.94
2023-10-12T07:28:01.953Z,98682.58
2023-10-12T07:33:08.641Z,98676.69
2023-10-12T07:38:15.509Z,98673.80
2023-10-12T07:43:19.793Z,98680.48
2023-10-12T07:48:32.840Z,98670.79
2023-10-12T07:53:38.282Z,98676.66
2023-10-12T07:58:43.317Z,98685.27
2023-10-12T08:03:52.183Z,98695.59
2023-10-12T08:09:03.630Z,98690.67
2023-10-12T08:14:40.543Z,98691.80
2023-10-12T08:19:45.570Z,98696.67
2023-10-12T08:24:47.696Z,98696.21
2023-10-12T08:29:49.597Z,98693.75
2023-10-12T08:35:00.223Z,98687.70
2023-10-12T08:40:20.484Z,98684.83
2023-10-12T08:45:28.048Z,98688.80
2023-10-12T08:50:48.456Z,98688.53
2023-10-12T08:55:53.273Z,98690.98
2023-10-12T09:01:01.146Z,98696.83
2023-10-12T09:06:08.758Z,98691.74
2023-10-12T09:11:10.572Z,98686.47
2023-10-12T09:16:15.458Z,98688.30
2023-10-12T09:21:22.523Z,98702.40
2023-10-12T09:26:31.752Z,98721.77
2023-10-12T09:31:41.123Z,98738.53
2023-10-12T09:36:56.409Z,98753.35
2023-10-12T09:42:11.111Z,98751.11
2023-10-12T09:47:23.273Z,98761.48
2023-10-12T09:52:41.801Z,98765.46
2023-10-12T09:57:51.419Z,98753.52
2023-10-12T10:02:57.104Z,98766.02
2023-10-12T10:08:05.176Z,98758.14
2023-10-12T10:13:11.599Z,98761.89
2023-10-12T10:18:17.709Z,98762.48
2023-10-12T10:23:20.989Z,98769.13
2023-10-12T10:28:33.445Z,98774.20
2023-10-12T10:33:38.908Z,98770.06
2023-10-12T10:38:55.216Z,98776.34
2023-10-12T10:43:58.148Z,98778.08
2023-10-12T10:54:13.747Z,98778.48
2023-10-12T10:59:19.452Z,98776.41
2023-10-12T11:04:34.768Z,98774.35
2023-10-12T11:09:52.987Z,98770.77
2023-10-12T11:15:12.337Z,98766.91
2023-10-12T11:20:45.514Z,98772.72
2023-10-12T11:25:48.434Z,98784.77
2023-10-12T11:30:53.932Z,98789.35
2023-10-12T11:36:01.999Z,98794.02
2023-10-12T11:41:18.259Z,98782.52
2023-10-12T11:46:20.920Z,98780.31
2023-10-12T11:51:23.159Z,98793.14
2023-10-12T11:56:26.805Z,98788.15
2023-10-12T12:01:29.979Z,98781.05
2023-10-12T12:06:33.640Z,98790.55
2023-10-12T12:11:39.261Z,98795.00
2023-10-12T12:16:41.090Z,98791.69
2023-10-12T12:21:43.618Z,98796.17
2023-10-12T12:26:47.846Z,98795.52
2023-10-12T12:31:52.288Z,98788.27
2023-10-12T12:36:55.942Z,98786.89
2023-10-12T12:41:57.769Z,98785.58
2023-10-12T12:47:00.949Z,98788.59
2023-10-12T12:52:04.310Z,98798.60
2023-10-12T12:57:06.337Z,98801.60
2023-10-12T13:02:08.766Z,98809.38
2023-10-12T13:07:10.781Z,98813.88
2023-10-12T13:12:12.738Z,98823.92
2023-10-12T13:17:17.161Z,98827.85
2023-10-12T13:22:19.750Z,98829.30
2023-10-12T13:27:23.753Z,98834.14
2023-10-12T13:32:27.929Z,98827.91
2023-10-12T13:37:31.888Z,98832.01
2023-10-12T13:42:36.070Z,98823.79
2023-10-12T13:47:37.859Z,98819.97
2023-10-12T13:52:40.141Z,98823.81
2023-10-12T13:57:52.059Z,98827.64
2023-10-12T14:02:58.424Z,98824.32
2023-10-12T14:08:00.396Z,98815.40
2023-10-12T14:13:04.494Z,98822.45
2023-10-12T14:18:06.704Z,98828.86
2023-10-12T14:23:08.546Z,98843.16
2023-10-12T14:28:12.891Z,98852.09
2023-10-12T14:33:16.614Z,98860.80
2023-10-12T14:38:18.584Z,98864.64
2023-10-12T14:43:24.942Z,98876.95
2023-10-12T14:48:27.603Z,98875.66
2023-10-12T14:53:29.651Z,98876.21
2023-10-12T14:58:32.672Z,98876.84
2023-10-12T15:03:36.077Z,98879.27
2023-10-12T15:08:38.104Z,98875.35
2023-10-12T15:13:42.134Z,98873.80
2023-10-12T15:18:44.318Z,98874.23
2023-10-12T15:23:46.408Z,98872.73
2023-10-12T15:28:50.664Z,98878.85
2023-10-12T15:33:52.590Z,98885.67
2023-10-12T15:38:54.355Z,98891.70
2023-10-12T15:43:56.935Z,98887.21
2023-10-12T15:49:02.104Z,98885.65
2023-10-12T15:54:06.781Z,98883.38
2023-10-12T15:59:11.135Z,98881.83
2023-10-12T16:04:13.365Z,98881.52
2023-10-12T16:09:22.127Z,98885.08
2023-10-12T16:14:27.032Z,98881.39
2023-10-12T16:19:28.994Z,98885.42
2023-10-12T16:24:30.893Z,98888.58
2023-10-12T16:29:41.829Z,98886.66
2023-10-12T16:34:51.795Z,98884.33
2023-10-12T16:39:55.850Z,98892.89
2023-10-12T16:45:02.592Z,98904.08
2023-10-12T16:50:06.050Z,98906.07
2023-10-12T16:55:11.049Z,98912.84
2023-10-12T17:00:16.631Z,98913.63
2023-10-12T17:05:23.446Z,98921.27
2023-10-12T17:10:34.923Z,98926.25
2023-10-12T17:15:41.050Z,98927.33
2023-10-12T17:20:43.019Z,98928.15
2023-10-12T17:25:48.525Z,98935.30
2023-10-12T17:30:50.546Z,98936.33
2023-10-12T17:35:53.196Z,98940.84
2023-10-12T17:40:55.052Z,98946.25
2023-10-12T17:45:58.839Z,98956.39
2023-10-12T17:51:04.756Z,98956.63
2023-10-12T17:56:13.351Z,98962.05
2023-10-12T18:01:15.461Z,98965.72
2023-10-12T18:06:20.342Z,98967.74
2023-10-12T18:11:25.468Z,98966.84
2023-10-12T18:16:34.301Z,98975.58
2023-10-12T18:21:38.077Z,98984.53
2023-10-12T18:26:40.414Z,98984.17
2023-10-12T18:31:42.402Z,98984.50
2023-10-12T18:36:55.079Z,98982.05
2023-10-12T18:42:00.233Z,98978.63
2023-10-12T18:47:02.746Z,98977.06
2023-10-12T18:52:04.737Z,98964.30
2023-10-12T18:57:06.861Z,98953.17
2023-10-12T19:02:08.880Z,98958.91
2023-10-12T19:07:11.119Z,98963.27
2023-10-12T19:12:14.265Z,98961.52
2023-10-12T19:17:16.889Z,98957.41
2023-10-12T19:22:19.108Z,98953.86
2023-10-12T19:27:21.124Z,98953.15
2023-10-12T19:32:25.810Z,98955.38
2023-10-12T19:37:28.163Z,98950.98
2023-10-12T19:42:30.145Z,98946.97
2023-10-12T19:47:33.146Z,98942.85
2023-10-12T19:52:36.931Z,98948.16
2023-10-12T19:57:42.683Z,98952.05
2023-10-12T20:02:46.379Z,98946.76
2023-10-12T20:07:48.379Z,98947.71
2023-10-12T20:12:50.296Z,98950.96
2023-10-12T20:17:54.082Z,98953.06
2023-10-12T20:22:57.245Z,98952.17
2023-10-12T20:27:59.223Z,98953.80
2023-10-12T20:33:03.021Z,98956.17
2023-10-12T20:38:05.703Z,98956.83
2023-10-12T20:43:10.060Z,98954.65
2023-10-12T20:48:13.292Z,98955.89
2023-10-12T20:53:16.667Z,98950.59
2023-10-12T20:58:41.111Z,98955.27
2023-10-12T21:03:42.936Z,98947.06
2023-10-12T21:08:50.708Z,98946.09
2023-10-12T21:13:53.841Z,98939.21
2023-10-12T21:19:06.623Z,98942.27
2023-10-12T21:24:14.041Z,98940.46
2023-10-12T21:29:19.767Z,98947.05
2023-10-12T21:34:25.860Z,98949.26
2023-10-12T21:39:37.083Z,98947.60
2023-10-12T21:44:41.123Z,98945.65
2023-10-12T21:49:45.279Z,98944.50
2023-10-12T21:54:49.604Z,98940.55
2023-10-12T21:59:51.579Z,98942.14
2023-10-12T22:04:53.816Z,98944.29
2023-10-12T22:10:04.833Z,98948.52
2023-10-12T22:15:20.443Z,98947.08
2023-10-12T22:20:22.277Z,98943.92
2023-10-12T22:25:24.282Z,98944.98
2023-10-12T22:30:26.571Z,98945.05
2023-10-12T22:35:29.414Z,98944.33
2023-10-12T22:40:32.601Z,98950.23
2023-10-12T22:45:34.504Z,98954.46
2023-10-12T22:50:36.560Z,98954.74
2023-10-12T22:55:38.516Z,98953.33
2023-10-12T23:00:40.975Z,98952.01
2023-10-12T23:05:42.867Z,98957.76
2023-10-12T23:10:47.816Z,98957.27
2023-10-12T23:15:50.164Z,98962.90
2023-10-12T23:21:04.897Z,98963.29
2023-10-12T23:26:08.557Z,98963.92
2023-10-12T23:31:16.603Z,98951.83
2023-10-12T23:36:19.609Z,98954.15
2023-10-12T23:41:23.346Z,98950.40
2023-10-12T23:46:27.332Z,98944.25
2023-10-12T23:51:29.600Z,98943.23
2023-10-12T23:56:31.404Z,98940.04
